Flight Track Log - Related Links

Times and Time Zones

All times are in EDT time to prevent confusion due to time zone crossing. See the DAL268 flight status page for this flight to view local times or setup timezone preferences in your user account.

Time Position Orientation Groundspeed Altitude Reporting Facility
EDT Latitude Longitude Course Direction KTS MPH feet Rate Location/Type
Sat 02:33:11 PM 37.6110 -122.3780 360° North 98 113  Level FlightAware ADS-B
Sat 02:33:33 PM 37.6245 -122.3690 28° Northeast 173 199 100 1,167 Climbing FlightAware ADS-B
Sat 02:33:47 PM 37.6339 -122.3630 27° Northeast 177 204 700 2,500 Climbing FlightAware ADS-B
Sat 02:33:57 PM 37.6404 -122.3560 40° Northeast 190 219 1,100 2,625 Climbing FlightAware ADS-B
Sat 02:34:03 PM 37.6439 -122.3500 54° Northeast 195 224 1,400 2,100 Climbing FlightAware ADS-B
Sat 02:34:17 PM 37.6520 -122.3370 52° Northeast 211 243 1,800 1,655 Climbing FlightAware ADS-B
Sat 02:34:32 PM 37.6613 -122.3220 52° Northeast 226 260 2,200 1,800 Climbing FlightAware ADS-B
Sat 02:34:47 PM 37.6722 -122.3070 47° Northeast 238 274 2,700 2,000 Climbing FlightAware ADS-B
Sat 02:35:02 PM 37.6838 -122.2900 49° Northeast 249 287 3,200 1,800 Climbing FlightAware ADS-B
Sat 02:35:17 PM 37.6960 -122.2730 48° Northeast 270 311 3,600 2,250 Climbing FlightAware ADS-B
Sat 02:35:34 PM 37.7104 -122.2530 48° Northeast 274 315 4,400 2,684 Climbing FlightAware ADS-B
Sat 02:35:55 PM 37.7276 -122.2290 48° Northeast 278 320 5,300 2,500 Climbing FlightAware ADS-B
Sat 02:36:10 PM 37.7413 -122.2100 48° Northeast 286 329 5,900 2,364 Climbing FlightAware ADS-B
Sat 02:36:28 PM 37.7576 -122.1880 47° Northeast 292 336 6,600 2,160 Climbing FlightAware ADS-B
Sat 02:36:35 PM 37.7646 -122.1800 42° Northeast 297 342 6,800 2,640 Climbing FlightAware ADS-B
Sat 02:36:53 PM 37.7845 -122.1600 38° Northeast 298 343 7,700 2,545 Climbing FlightAware ADS-B
Sat 02:37:08 PM 37.8007 -122.1450 36° Northeast 304 350 8,200 1,800 Climbing FlightAware ADS-B
Sat 02:37:23 PM 37.8187 -122.1280 37° Northeast 315 362 8,600 2,069 Climbing FlightAware ADS-B
Sat 02:37:37 PM 37.8349 -122.1130 36° Northeast 316 364 9,200 2,690 Climbing FlightAware ADS-B
Sat 02:37:52 PM 37.8531 -122.0960 36° Northeast 317 365 9,900 1,787 Climbing FlightAware ADS-B
Sat 02:38:24 PM 37.8918 -122.0600 36° Northeast 346 398 10,600 1,377 Climbing FlightAware ADS-B
Sat 02:38:53 PM 37.9314 -122.0240 36° Northeast 372 428 11,300 1,424 Climbing FlightAware ADS-B
Sat 02:39:23 PM 37.9754 -121.9840 36° Northeast 394 453 12,000 1,524 Climbing FlightAware ADS-B
Sat 02:39:56 PM 38.0247 -121.9380 36° Northeast 407 468 12,900 2,022 Climbing FlightAware ADS-B
Sat 02:40:52 PM 38.1090 -121.8610 36° Northeast 412 474 15,000 2,292 Climbing FlightAware ADS-B
Sat 02:41:25 PM 38.1620 -121.8130 35° Northeast 411 473 16,300 2,149 Climbing FlightAware ADS-B
Sat 02:41:59 PM 38.2160 -121.7630 36° Northeast 419 482 17,400 1,714 Climbing FlightAware ADS-B
Sat 02:42:35 PM 38.2710 -121.7110 37° Northeast 428 493 18,300 1,629 Climbing FlightAware ADS-B
Sat 02:43:09 PM 38.3270 -121.6600 36° Northeast 436 502 19,300 1,606 Climbing FlightAware ADS-B
Sat 02:43:46 PM 38.3860 -121.6050 36° Northeast 442 509 20,200 1,521 Climbing FlightAware ADS-B
Sat 02:44:20 PM 38.4400 -121.5490 39° Northeast 448 516 21,100 1,521 Climbing FlightAware ADS-B
Sat 02:44:57 PM 38.4910 -121.4720 50° Northeast 455 524 22,000 1,457 Climbing FlightAware ADS-B
Sat 02:45:30 PM 38.5330 -121.4010 53° Northeast 460 529 22,800 1,478 Climbing FlightAware ADS-B
Sat 02:46:06 PM 38.5780 -121.3210 54° Northeast 465 535 23,700 1,412 Climbing FlightAware ADS-B
Sat 02:46:21 PM 38.5978 -121.2870 53° Northeast 468 539 24,000 1,167 Climbing FlightAware ADS-B
Sat 02:47:18 PM 38.6710 -121.1600 54° Northeast 481 554 25,100 1,034 Climbing FlightAware ADS-B
Sat 02:47:48 PM 38.7120 -121.0890 53° Northeast 493 567 25,500 909 Climbing FlightAware ADS-B
Sat 02:48:24 PM 38.7600 -121.0070 53° Northeast 497 572 26,100 1,114 Climbing FlightAware ADS-B
Sat 02:48:58 PM 38.8070 -120.9250 54° Northeast 501 577 26,800 1,068 Climbing FlightAware ADS-B
Sat 02:49:37 PM 38.8570 -120.8390 53° Northeast 506 582 27,400 1,000 Climbing FlightAware ADS-B
Sat 02:50:10 PM 38.9080 -120.7510 53° Northeast 509 586 28,000 1,091 Climbing FlightAware ADS-B
Sat 02:50:43 PM 38.9540 -120.6720 53° Northeast 513 590 28,600 1,043 Climbing FlightAware ADS-B
Sat 02:51:19 PM 39.0050 -120.5840 53° Northeast 514 592 29,200 1,114 Climbing FlightAware ADS-B
Sat 02:51:53 PM 39.0520 -120.5010 54° Northeast 512 589 29,900 1,235 Climbing FlightAware ADS-B
Sat 02:52:27 PM 39.1000 -120.4180 53° Northeast 510 587 30,600 1,200 Climbing FlightAware ADS-B
Sat 02:53:08 PM 39.1590 -120.3150 54° Northeast 510 587 31,400 1,014 Climbing FlightAware ADS-B
Sat 02:53:38 PM 39.2000 -120.2420 54° Northeast 510 587 31,800 971 Climbing FlightAware ADS-B
Sat 02:54:16 PM 39.2530 -120.1500 53° Northeast 511 588 32,500 1,054 Climbing FlightAware ADS-B
Sat 02:54:52 PM 39.3040 -120.0600 54° Northeast 510 587 33,100 882 Climbing FlightAware ADS-B
Sat 02:55:24 PM 39.3480 -119.9820 54° Northeast 511 588 33,500 938 Climbing FlightAware ADS-B
Sat 02:55:56 PM 39.3920 -119.9040 54° Northeast 510 587 34,100 917 Climbing FlightAware ADS-B
Sat 02:56:36 PM 39.4470 -119.8060 54° Northeast 512 589 34,600 740 Climbing FlightAware ADS-B
Sat 02:57:09 PM 39.4940 -119.7230 54° Northeast 512 589 35,000 353 Climbing FlightAware ADS-B
Sat 02:57:44 PM 39.5420 -119.6360 54° Northeast 515 593 35,000  Level FlightAware ADS-B
Sat 02:58:19 PM 39.5900 -119.5510 54° Northeast 514 592 35,000  Level FlightAware ADS-B
Sat 02:58:55 PM 39.6400 -119.4610 54° Northeast 513 590 35,000  Level FlightAware ADS-B
Sat 02:59:32 PM 39.6920 -119.3670 54° Northeast 514 592 35,000  Level FlightAware ADS-B
Sat 03:00:05 PM 39.7370 -119.2860 54° Northeast 514 592 35,000  Level FlightAware ADS-B
Sat 03:00:42 PM 39.7900 -119.1900 54° Northeast 513 590 35,000  Level FlightAware ADS-B
Sat 03:01:18 PM 39.8400 -119.1000 54° Northeast 513 590 35,000  Level FlightAware ADS-B
Sat 03:01:50 PM 39.8840 -119.0210 54° Northeast 512 589 35,000  Level FlightAware ADS-B
Sat 03:02:28 PM 39.9360 -118.9250 55° Northeast 511 588 35,000  Level FlightAware ADS-B
Sat 03:02:59 PM 39.9770 -118.8490 55° Northeast 511 588 35,000  Level FlightAware ADS-B
Sat 03:03:34 PM 40.0260 -118.7590 55° Northeast 510 587 35,000  Level FlightAware ADS-B
Sat 03:04:07 PM 40.0700 -118.6790 54° Northeast 510 587 35,000  Level FlightAware ADS-B
Sat 03:04:46 PM 40.1210 -118.5760 57° Northeast 511 588 35,000  Level FlightAware ADS-B
Sat 03:05:22 PM 40.1540 -118.4730 67° East 511 588 35,000  Level FlightAware ADS-B
Sat 03:05:58 PM 40.1830 -118.3700 70° East 512 589 35,000  Level FlightAware ADS-B
Sat 03:06:28 PM 40.2060 -118.2850 70° East 511 588 35,000  Level FlightAware ADS-B
Sat 03:07:06 PM 40.2370 -118.1720 70° East 511 588 35,000  Level FlightAware ADS-B
Sat 03:07:49 PM 40.2690 -118.0530 71° East 511 588 35,000  Level FlightAware ADS-B
Sat 03:08:28 PM 40.2960 -117.9570 70° East 511 588 35,000  Level FlightAware ADS-B
Sat 03:09:04 PM 40.3200 -117.8680 70° East 511 588 35,000  Level FlightAware ADS-B
Sat 03:09:41 PM 40.3460 -117.7760 70° East 511 588 35,000  Level FlightAware ADS-B
Sat 03:10:19 PM 40.3720 -117.6820 70° East 511 588 35,000  Level FlightAware ADS-B
Sat 03:10:55 PM 40.3970 -117.5930 70° East 511 588 35,000  Level FlightAware ADS-B
Sat 03:11:31 PM 40.4210 -117.5040 70° East 511 588 35,000  Level FlightAware ADS-B
Sat 03:12:07 PM 40.4460 -117.4140 70° East 511 588 35,000  Level FlightAware ADS-B
Sat 03:12:45 PM 40.4720 -117.3200 70° East 511 588 35,000  Level FlightAware ADS-B
Sat 03:13:19 PM 40.4960 -117.2360 69° East 511 588 35,000  Level FlightAware ADS-B
Sat 03:13:58 PM 40.5220 -117.1390 71° East 511 588 35,000  Level FlightAware ADS-B
Sat 03:14:37 PM 40.5490 -117.0420 70° East 511 588 35,000  Level FlightAware ADS-B
Sat 03:15:15 PM 40.5750 -116.9470 70° East 511 588 35,000  Level FlightAware ADS-B
Sat 03:15:54 PM 40.6020 -116.8500 70° East 511 588 35,000  Level FlightAware ADS-B
Sat 03:16:30 PM 40.6270 -116.7610 70° East 511 588 35,000  Level FlightAware ADS-B
Sat 03:17:07 PM 40.6520 -116.6690 70° East 511 588 35,000  Level FlightAware ADS-B
Sat 03:17:47 PM 40.6800 -116.5690 70° East 511 588 35,000  Level FlightAware ADS-B
Sat 03:18:19 PM 40.7640 -116.2010 73° East 515 593 35,000  Level FlightAware ADS-B
Sat 03:18:51 PM 40.7893 -116.1060 71° East 515 593 35,000  Level FlightAware ADS-B
Sat 03:19:22 PM 40.8132 -116.0160 71° East 515 593 35,000  Level FlightAware ADS-B
Sat 03:19:52 PM 40.8371 -115.9250 71° East 516 594 35,000  Level FlightAware ADS-B
Sat 03:20:23 PM 40.8607 -115.8350 71° East 517 595 35,000  Level FlightAware ADS-B
Sat 03:22:50 PM 40.9747 -115.3970 71° East 518 596 35,000  Level FlightAware ADS-B
Sat 03:23:29 PM 41.0050 -115.2790 71° East 518 596 35,000  Level FlightAware ADS-B
Sat 03:23:59 PM 41.0281 -115.1890 71° East 518 596 35,000  Level FlightAware ADS-B
Sat 03:24:31 PM 41.0522 -115.0940 71° East 518 596 35,000  Level FlightAware ADS-B
Sat 03:25:02 PM 41.0764 -114.9990 71° East 518 596 35,000  Level FlightAware ADS-B
Sat 03:25:33 PM 41.0996 -114.9070 71° East 518 596 35,000  Level FlightAware ADS-B
Sat 03:26:03 PM 41.1227 -114.8160 71° East 518 596 35,000  Level FlightAware ADS-B
Sat 03:26:38 PM 41.1492 -114.7100 72° East 518 596 35,000  Level FlightAware ADS-B
Sat 03:27:10 PM 41.1729 -114.6150 72° East 518 596 35,000  Level FlightAware ADS-B
Sat 03:27:40 PM 41.1955 -114.5240 72° East 518 596 35,000  Level FlightAware ADS-B
Sat 03:28:11 PM 41.2184 -114.4320 72° East 518 596 35,000  Level FlightAware ADS-B
Sat 03:28:41 PM 41.2408 -114.3410 72° East 519 597 35,000  Level FlightAware ADS-B
Sat 03:29:11 PM 41.2631 -114.2510 72° East 519 597 35,000  Level FlightAware ADS-B
Sat 03:29:43 PM 41.2871 -114.1530 72° East 519 597 35,000  Level FlightAware ADS-B
Sat 03:30:14 PM 41.3099 -114.0590 72° East 519 597 35,000 98 Level FlightAware ADS-B
Sat 03:30:44 PM 41.3324 -113.9670 72° East 520 598 35,100 588 Climbing FlightAware ADS-B
Sat 03:31:05 PM 41.3471 -113.9050 72° East 519 597 35,500 1,024 Climbing FlightAware ADS-B
Sat 03:31:25 PM 41.3587 -113.8440 76° East 517 595 35,800 960 Climbing FlightAware ADS-B
Sat 03:31:55 PM 41.3693 -113.7490 82° East 516 594 36,300 984 Climbing FlightAware ADS-B
Sat 03:32:26 PM 41.3764 -113.6510 84° East 513 590 36,800 689 Climbing FlightAware ADS-B
Sat 03:32:56 PM 41.3825 -113.5560 85° East 515 593 37,000 200 Climbing FlightAware ADS-B
Sat 03:33:26 PM 41.3884 -113.4620 85° East 514 592 37,000  Level FlightAware ADS-B
Sat 03:34:02 PM 41.3953 -113.3510 85° East 513 590 37,000  Level FlightAware ADS-B
Sat 03:34:33 PM 41.4014 -113.2540 85° East 512 589 37,000  Level FlightAware ADS-B
Sat 03:35:04 PM 41.4075 -113.1560 85° East 513 590 37,000  Level FlightAware ADS-B
Sat 03:35:35 PM 41.4134 -113.0610 85° East 512 589 37,000  Level FlightAware ADS-B
Sat 03:36:21 PM 41.4224 -112.9140 85° East 511 588 37,000  Level FlightAware ADS-B
Sat 03:36:55 PM 41.4287 -112.8090 85° East 511 588 37,000  Level FlightAware ADS-B
Sat 03:37:25 PM 41.4343 -112.7140 85° East 511 588 37,000  Level FlightAware ADS-B
Sat 03:37:56 PM 41.4398 -112.6180 86° East 509 586 37,000  Level FlightAware ADS-B
Sat 03:38:27 PM 41.4454 -112.5210 86° East 509 586 37,000  Level FlightAware ADS-B
Sat 03:38:58 PM 41.4509 -112.4240 86° East 509 586 37,000  Level FlightAware ADS-B
Sat 03:39:29 PM 41.4561 -112.3290 86° East 509 586 37,000  Level FlightAware ADS-B
Sat 03:39:59 PM 41.4612 -112.2360 86° East 509 586 37,000  Level FlightAware ADS-B
Sat 03:40:29 PM 41.4663 -112.1410 86° East 508 585 37,000  Level FlightAware ADS-B
Sat 03:41:00 PM 41.4714 -112.0450 86° East 508 585 37,000  Level FlightAware ADS-B
Sat 03:41:30 PM 41.4763 -111.9490 86° East 508 585 37,000  Level FlightAware ADS-B
Sat 03:42:02 PM 41.4814 -111.8500 86° East 509 586 37,000  Level FlightAware ADS-B
Sat 03:42:48 PM 41.4886 -111.7060 86° East 509 586 37,000  Level FlightAware ADS-B
Sat 03:43:19 PM 41.4933 -111.6120 86° East 509 586 37,000  Level FlightAware ADS-B
Sat 03:43:49 PM 41.4979 -111.5160 86° East 510 587 37,000  Level FlightAware ADS-B
Sat 03:44:20 PM 41.5024 -111.4210 86° East 511 588 37,000  Level FlightAware ADS-B
Sat 03:44:50 PM 41.5068 -111.3270 86° East 512 589 37,000  Level FlightAware ADS-B
Sat 03:45:20 PM 41.5111 -111.2320 87° East 512 589 37,000  Level FlightAware ADS-B
Sat 03:45:50 PM 41.5154 -111.1370 87° East 512 589 37,000  Level FlightAware ADS-B
Sat 03:46:20 PM 41.5196 -111.0410 87° East 512 589 37,000  Level FlightAware ADS-B
Sat 03:46:51 PM 41.5237 -110.9460 87° East 513 590 37,000  Level FlightAware ADS-B
Sat 03:47:22 PM 41.5279 -110.8490 87° East 513 590 37,000  Level FlightAware ADS-B
Sat 03:47:52 PM 41.5319 -110.7510 87° East 513 590 37,000  Level FlightAware ADS-B
Sat 03:48:40 PM 41.5380 -110.6010 87° East 513 590 37,000  Level FlightAware ADS-B
Sat 03:49:17 PM 41.5430 -110.4860 87° East 512 589 37,000  Level FlightAware ADS-B
Sat 03:49:49 PM 41.5460 -110.3880 88° East 513 590 37,000  Level FlightAware ADS-B
Sat 03:50:26 PM 41.5510 -110.2690 87° East 514 592 37,000  Level FlightAware ADS-B
Sat 03:51:05 PM 41.5550 -110.1640 87° East 514 592 37,000  Level FlightAware ADS-B
Sat 03:51:52 PM 41.5600 -110.0370 87° East 514 592 37,000  Level FlightAware ADS-B
Sat 03:52:30 PM 41.5640 -109.9350 87° East 514 592 37,000  Level FlightAware ADS-B
Sat 03:53:09 PM 41.5680 -109.8300 87° East 514 592 37,000  Level FlightAware ADS-B
Sat 03:53:43 PM 41.5710 -109.7380 87° East 514 592 37,000  Level FlightAware ADS-B
Sat 03:54:20 PM 41.5750 -109.6380 87° East 514 592 37,000  Level FlightAware ADS-B
Sat 03:54:56 PM 41.5790 -109.5410 87° East 514 592 37,000  Level FlightAware ADS-B
Sat 03:55:40 PM 41.5840 -109.4220 87° East 514 592 37,000  Level FlightAware ADS-B
Sat 03:56:15 PM 41.5870 -109.3280 88° East 514 592 37,000  Level FlightAware ADS-B
Sat 03:56:50 PM 41.5910 -109.2330 87° East 514 592 37,000  Level FlightAware ADS-B
Sat 03:57:27 PM 41.5950 -109.1330 87° East 514 592 37,000  Level FlightAware ADS-B
Sat 03:58:03 PM 41.5990 -109.0360 87° East 514 592 37,000  Level FlightAware ADS-B
Sat 03:58:37 PM 41.6020 -108.9450 87° East 514 592 37,000  Level FlightAware ADS-B
Sat 03:59:14 PM 41.6060 -108.8450 87° East 514 592 37,000  Level FlightAware ADS-B
Sat 03:59:50 PM 41.6100 -108.7470 87° East 514 592 37,000  Level FlightAware ADS-B
Sat 04:00:37 PM 41.6406 -108.3411 87° East 519 597 37,000  Level Salt Lake Center
Sat 04:01:38 PM 41.6542 -108.1594 84° East 517 595 37,000  Level Salt Lake Center
Sat 04:02:40 PM 41.6681 -107.9767 84° East 516 594 37,000  Level Salt Lake Center
Sat 04:03:24 PM 41.6783 -107.8231 85° East 516 594 37,000  Level Denver Center
Sat 04:09:21 PM 41.7520 -106.6780 85° East 515 593 37,000  Level FlightAware ADS-B
Sat 04:10:00 PM 41.7590 -106.5720 85° East 515 593 37,000  Level FlightAware ADS-B
Sat 04:10:37 PM 41.7660 -106.4290 86° East 516 594 37,000  Level FlightAware ADS-B
Sat 04:11:19 PM 41.7720 -106.3190 86° East 515 593 37,000  Level FlightAware ADS-B
Sat 04:11:53 PM 41.7800 -106.1870 85° East 516 594 37,000  Level FlightAware ADS-B
Sat 04:12:29 PM 41.7860 -106.0760 86° East 517 595 37,000  Level FlightAware ADS-B
Sat 04:13:03 PM 41.7920 -105.9630 86° East 518 596 37,000  Level FlightAware ADS-B
Sat 04:13:41 PM 41.7980 -105.8390 86° East 519 597 37,000  Level FlightAware ADS-B
Sat 04:14:13 PM 41.8030 -105.7400 86° East 521 600 37,000  Level FlightAware ADS-B
Sat 04:14:41 PM 41.8080 -105.6480 86° East 520 598 37,000  Level FlightAware ADS-B
Sat 04:15:39 PM 41.8160 -105.4780 86° East 520 598 37,000  Level FlightAware ADS-B
Sat 04:16:12 PM 41.8220 -105.3580 86° East 519 597 37,000  Level FlightAware ADS-B
Sat 04:16:49 PM 41.8270 -105.2420 87° East 517 595 37,000  Level FlightAware ADS-B
Sat 04:17:18 PM 41.8310 -105.1550 86° East 520 598 37,000  Level FlightAware ADS-B
Sat 04:17:55 PM 41.8370 -105.0260 86° East 520 598 37,000  Level FlightAware ADS-B
Sat 04:18:35 PM 41.8420 -104.9010 87° East 521 600 37,000  Level FlightAware ADS-B
Sat 04:19:22 PM 41.8490 -104.7670 86° East 522 601 37,000  Level FlightAware ADS-B
Sat 04:19:57 PM 41.8540 -104.6330 87° East 521 600 37,000  Level FlightAware ADS-B
Sat 04:20:33 PM 41.8580 -104.5160 87° East 520 598 37,000  Level FlightAware ADS-B
Sat 04:21:12 PM 41.8630 -104.3930 87° East 520 598 37,000  Level FlightAware ADS-B
Sat 04:21:51 PM 41.8670 -104.2830 87° East 521 600 37,000  Level FlightAware ADS-B
Sat 04:22:27 PM 41.8710 -104.1840 87° East 521 600 37,000  Level FlightAware ADS-B
Sat 04:23:00 PM 41.8760 -104.0460 87° East 522 601 37,000  Level FlightAware ADS-B
Sat 04:23:34 PM 41.8800 -103.9350 87° East 521 600 37,000  Level FlightAware ADS-B
Sat 04:24:03 PM 41.8830 -103.8390 88° East 521 600 37,000  Level FlightAware ADS-B
Sat 04:24:42 PM 41.8870 -103.7160 87° East 521 600 37,000  Level FlightAware ADS-B
Sat 04:25:28 PM 41.8920 -103.5920 87° East 521 600 37,000  Level FlightAware ADS-B
Sat 04:26:04 PM 41.8950 -103.4930 88° East 521 600 37,000  Level FlightAware ADS-B
Sat 04:26:34 PM 41.9110 -103.3580 81° East 518 596 37,000  Level FlightAware ADS-B
Sat 04:27:09 PM 41.9250 -103.2630 79° East 516 594 37,000  Level FlightAware ADS-B
Sat 04:27:48 PM 41.9440 -103.1270 79° East 516 594 37,000  Level FlightAware ADS-B
Sat 04:28:24 PM 41.9600 -103.0110 79° East 516 594 37,000  Level FlightAware ADS-B
Sat 04:28:52 PM 41.9710 -102.9350 79° East 517 595 37,000  Level FlightAware ADS-B
Sat 04:29:33 PM 41.9870 -102.8250 79° East 517 595 37,000  Level FlightAware ADS-B
Sat 04:30:10 PM 42.0010 -102.7250 79° East 517 595 37,000  Level FlightAware ADS-B
Sat 04:30:46 PM 42.0150 -102.6280 79° East 517 595 37,000  Level FlightAware ADS-B
Sat 04:31:23 PM 42.0290 -102.5290 79° East 517 595 37,000  Level FlightAware ADS-B
Sat 04:31:58 PM 42.0430 -102.4350 79° East 517 595 37,000  Level FlightAware ADS-B
Sat 04:32:34 PM 42.0570 -102.3380 79° East 517 595 37,000  Level FlightAware ADS-B
Sat 04:33:12 PM 42.0710 -102.2360 79° East 517 595 37,000  Level FlightAware ADS-B
Sat 04:33:48 PM 42.0850 -102.1390 79° East 517 595 37,000  Level FlightAware ADS-B
Sat 04:34:24 PM 42.0990 -102.0420 79° East 517 595 37,000  Level FlightAware ADS-B
Sat 04:34:59 PM 42.1130 -101.9480 79° East 517 595 37,000  Level FlightAware ADS-B
Sat 04:35:36 PM 42.1270 -101.8490 79° East 517 595 37,000  Level FlightAware ADS-B
Sat 04:36:13 PM 42.1420 -101.7490 79° East 517 595 37,000  Level FlightAware ADS-B
Sat 04:36:49 PM 42.1560 -101.6520 79° East 517 595 37,000  Level FlightAware ADS-B
Sat 04:37:26 PM 42.1700 -101.5530 79° East 517 595 37,000  Level FlightAware ADS-B
Sat 04:38:02 PM 42.1840 -101.4560 79° East 517 595 37,000  Level FlightAware ADS-B
Sat 04:38:37 PM 42.1970 -101.3610 80° East 517 595 37,000  Level FlightAware ADS-B
Sat 04:39:19 PM 42.2244 -100.9572 80° East 518 596 37,000  Level Denver Center
Sat 04:40:20 PM 42.2453 -100.7769 81° East 510 587 37,000  Level Denver Center
Sat 04:41:22 PM 42.2703 -100.5625 81° East 516 594 37,000  Level Denver Center
Sat 04:42:23 PM 42.2919 -100.3783 81° East 518 596 37,000  Level Denver Center
Sat 04:43:10 PM 42.3069 -100.2364 82° East 517 595 37,000  Level Minneapolis Center
Sat 04:44:12 PM 42.3289 -100.0472 81° East 513 590 37,000  Level Minneapolis Center
Sat 04:45:14 PM 42.3539 -99.8158 82° East 516 594 37,000  Level Minneapolis Center
Sat 04:46:16 PM 42.3744 -99.6244 82° East 515 593 37,000  Level Minneapolis Center
Sat 04:47:17 PM 42.3953 -99.4325 82° East 516 594 37,000  Level Minneapolis Center
Sat 04:48:32 PM 42.4186 -99.2022 82° East 513 590 37,000  Level Denver Center
Sat 04:49:33 PM 42.4381 -99.0142 82° East 510 587 37,000  Level Minneapolis Center
Sat 04:50:35 PM 42.4575 -98.8233 82° East 511 588 37,000  Level Minneapolis Center
Sat 04:51:37 PM 42.4733 -98.6336 83° East 508 585 37,000  Level Minneapolis Center
Sat 04:57:20 PM 42.5240 -97.5190 83° East 498 573 37,000  Level FlightAware ADS-B
Sat 04:58:05 PM 42.5300 -97.3810 87° East 497 572 37,000  Level FlightAware ADS-B
Sat 04:58:40 PM 42.5340 -97.2820 87° East 496 571 37,000  Level FlightAware ADS-B
Sat 04:59:14 PM 42.5380 -97.1660 87° East 495 570 37,000  Level FlightAware ADS-B
Sat 05:00:05 PM 42.5440 -97.0250 87° East 495 570 37,000  Level FlightAware ADS-B
Sat 05:00:37 PM 42.5480 -96.9110 87° East 493 567 37,000  Level FlightAware ADS-B
Sat 05:01:12 PM 42.5510 -96.8070 88° East 493 567 37,000  Level FlightAware ADS-B
Sat 05:01:50 PM 42.5560 -96.6840 87° East 493 567 37,000  Level FlightAware ADS-B
Sat 05:02:34 PM 42.5600 -96.5500 88° East 493 567 37,000  Level FlightAware ADS-B
Sat 05:03:08 PM 42.5630 -96.4430 88° East 493 567 37,000  Level FlightAware ADS-B
Sat 05:03:54 PM 42.5680 -96.3050 87° East 493 567 37,000  Level FlightAware ADS-B
Sat 05:04:30 PM 42.5710 -96.1930 88° East 492 566 37,000  Level FlightAware ADS-B
Sat 05:05:06 PM 42.5740 -96.0790 88° East 491 565 37,000  Level FlightAware ADS-B
Sat 05:05:44 PM 42.5770 -95.9750 88° East 489 563 37,000  Level FlightAware ADS-B
Sat 05:06:20 PM 42.5810 -95.8550 87° East 489 563 37,000  Level FlightAware ADS-B
Sat 05:06:56 PM 42.5850 -95.7460 87° East 487 560 37,000  Level FlightAware ADS-B
Sat 05:07:38 PM 42.5900 -95.6170 87° East 486 559 37,000  Level FlightAware ADS-B
Sat 05:08:18 PM 42.5950 -95.4940 87° East 486 559 37,000  Level FlightAware ADS-B
Sat 05:08:52 PM 42.5990 -95.3940 87° East 486 559 37,000  Level FlightAware ADS-B
Sat 05:09:23 PM 42.6030 -95.2960 87° East 486 559 37,000  Level FlightAware ADS-B
Sat 05:09:57 PM 42.6070 -95.1930 87° East 486 559 37,000  Level FlightAware ADS-B
Sat 05:10:36 PM 42.6110 -95.0770 87° East 486 559 37,000  Level FlightAware ADS-B
Sat 05:11:06 PM 42.6140 -94.9840 87° East 486 559 37,000  Level FlightAware ADS-B
Sat 05:11:54 PM 42.6190 -94.8370 87° East 486 559 37,000  Level FlightAware ADS-B
Sat 05:12:24 PM 42.6220 -94.7470 87° East 486 559 37,000  Level FlightAware ADS-B
Sat 05:13:00 PM 42.6250 -94.6370 88° East 485 558 37,000  Level FlightAware ADS-B
Sat 05:13:34 PM 42.6290 -94.5370 87° East 485 558 37,000  Level FlightAware ADS-B
Sat 05:14:12 PM 42.6320 -94.4200 88° East 485 558 37,000  Level FlightAware ADS-B
Sat 05:14:46 PM 42.6350 -94.3160 88° East 485 558 37,000  Level FlightAware ADS-B
Sat 05:15:22 PM 42.6380 -94.2060 88° East 485 558 37,000  Level FlightAware ADS-B
Sat 05:15:58 PM 42.6410 -94.0960 88° East 485 558 37,000  Level FlightAware ADS-B
Sat 05:16:32 PM 42.6440 -93.9950 88° East 485 558 37,000  Level FlightAware ADS-B
Sat 05:17:02 PM 42.6460 -93.9060 88° East 486 559 37,000  Level FlightAware ADS-B
Sat 05:17:42 PM 42.6490 -93.7810 88° East 487 560 37,000  Level FlightAware ADS-B
Sat 05:18:18 PM 42.6520 -93.6700 88° East 487 560 37,000  Level FlightAware ADS-B
Sat 05:18:54 PM 42.6540 -93.5620 89° East 487 560 37,000  Level FlightAware ADS-B
Sat 05:19:24 PM 42.6560 -93.4730 88° East 488 562 37,000  Level FlightAware ADS-B
Sat 05:20:00 PM 42.6590 -93.3590 88° East 488 562 37,000  Level FlightAware ADS-B
Sat 05:20:38 PM 42.6610 -93.2430 89° East 489 563 37,000  Level FlightAware ADS-B
Sat 05:21:14 PM 42.6630 -93.1330 89° East 489 563 37,000  Level FlightAware ADS-B
Sat 05:21:48 PM 42.6650 -93.0280 88° East 489 563 37,000  Level FlightAware ADS-B
Sat 05:22:25 PM 42.6670 -92.9130 89° East 489 563 37,000  Level FlightAware ADS-B
Sat 05:22:58 PM 42.6680 -92.8170 89° East 489 563 37,000  Level FlightAware ADS-B
Sat 05:23:30 PM 42.6700 -92.7200 88° East 489 563 37,000  Level FlightAware ADS-B
Sat 05:24:12 PM 42.6720 -92.5850 89° East 491 565 37,000  Level FlightAware ADS-B
Sat 05:24:47 PM 42.6730 -92.4800 89° East 492 566 37,000  Level FlightAware ADS-B
Sat 05:25:23 PM 42.6750 -92.3690 89° East 493 567 37,000  Level FlightAware ADS-B
Sat 05:26:00 PM 42.6760 -92.2540 89° East 495 570 37,000  Level FlightAware ADS-B
Sat 05:26:32 PM 42.6770 -92.1540 89° East 496 571 37,000  Level FlightAware ADS-B
Sat 05:27:09 PM 42.6780 -92.0440 89° East 497 572 37,000  Level FlightAware ADS-B
Sat 05:27:42 PM 42.6790 -91.9360 89° East 497 572 37,000  Level FlightAware ADS-B
Sat 05:28:22 PM 42.6800 -91.8120 89° East 496 571 37,000  Level FlightAware ADS-B
Sat 05:28:56 PM 42.6800 -91.7090 90° East 495 570 37,000  Level FlightAware ADS-B
Sat 05:29:30 PM 42.6810 -91.6060 89° East 495 570 37,000  Level FlightAware ADS-B
Sat 05:30:03 PM 42.6810 -91.5060 90° East 495 570 37,000  Level FlightAware ADS-B
Sat 05:30:41 PM 42.6820 -91.3850 89° East 495 570 37,000  Level FlightAware ADS-B
Sat 05:31:14 PM 42.6820 -91.2790 90° East 494 568 37,000  Level FlightAware ADS-B
Sat 05:31:48 PM 42.6820 -91.1730 90° East 494 568 37,000  Level FlightAware ADS-B
Sat 05:32:33 PM 42.6820 -91.0370 90° East 494 568 37,000  Level FlightAware ADS-B
Sat 05:33:05 PM 42.6820 -90.9360 90° East 493 567 37,000  Level FlightAware ADS-B
Sat 05:33:41 PM 42.6820 -90.8260 90° East 493 567 37,000  Level FlightAware ADS-B
Sat 05:34:17 PM 42.6820 -90.7150 90° East 493 567 37,000  Level FlightAware ADS-B
Sat 05:34:54 PM 42.6820 -90.5990 90° East 491 565 37,000  Level FlightAware ADS-B
Sat 05:35:26 PM 42.6810 -90.5000 91° East 490 564 37,000 281 Level FlightAware ADS-B
Sat 05:35:58 PM 42.6810 -90.4030 90° East 488 562 37,300 706 Climbing FlightAware ADS-B
Sat 05:36:34 PM 42.6800 -90.2930 91° East 492 566 37,800 676 Climbing FlightAware ADS-B
Sat 05:37:09 PM 42.6790 -90.1880 91° East 495 570 38,100 468 Climbing FlightAware ADS-B
Sat 05:37:51 PM 42.6780 -90.0570 91° East 501 577 38,400 480 Climbing FlightAware ADS-B
Sat 05:38:24 PM 42.6770 -89.9490 91° East 503 579 38,700 554 Climbing FlightAware ADS-B
Sat 05:38:56 PM 42.6760 -89.8480 91° East 503 579 39,000 281 Climbing FlightAware ADS-B
Sat 05:39:28 PM 42.6750 -89.7460 91° East 498 573 39,000  Level FlightAware ADS-B
Sat 05:40:02 PM 42.6740 -89.6430 91° East 496 571 39,000  Level FlightAware ADS-B
Sat 05:40:42 PM 42.6730 -89.5240 91° East 497 572 39,000  Level FlightAware ADS-B
Sat 05:41:17 PM 42.6710 -89.4110 91° East 498 573 39,000  Level FlightAware ADS-B
Sat 05:41:55 PM 42.6690 -89.2920 91° East 498 573 39,000  Level FlightAware ADS-B
Sat 05:42:24 PM 42.6680 -89.1990 91° East 498 573 39,000  Level FlightAware ADS-B
Sat 05:43:04 PM 42.6660 -89.0750 91° East 499 574 39,000  Level FlightAware ADS-B
Sat 05:43:34 PM 42.6640 -88.9820 92° East 499 574 39,000  Level FlightAware ADS-B
Sat 05:44:14 PM 42.6620 -88.8620 91° East 499 574 39,000  Level FlightAware ADS-B
Sat 05:44:48 PM 42.6600 -88.7500 91° East 499 574 39,000  Level FlightAware ADS-B
Sat 05:45:24 PM 42.6570 -88.6370 92° East 498 573 39,000  Level FlightAware ADS-B
Sat 05:45:57 PM 42.6550 -88.5360 92° East 498 573 39,000  Level FlightAware ADS-B
Sat 05:46:30 PM 42.6530 -88.4310 91° East 497 572 39,000  Level FlightAware ADS-B
Sat 05:47:08 PM 42.6500 -88.3130 92° East 497 572 39,000  Level FlightAware ADS-B
Sat 05:47:42 PM 42.6480 -88.2080 91° East 497 572 39,000  Level FlightAware ADS-B
Sat 05:48:19 PM 42.6450 -88.0950 92° East 498 573 39,000  Level FlightAware ADS-B
Sat 05:48:55 PM 42.6420 -87.9820 92° East 497 572 39,000  Level FlightAware ADS-B
Sat 05:49:26 PM 42.6390 -87.8860 92° East 497 572 39,000  Level FlightAware ADS-B
Sat 05:50:03 PM 42.6360 -87.7780 92° East 497 572 39,000  Level FlightAware ADS-B
Sat 05:50:42 PM 42.6330 -87.6490 92° East 497 572 39,000  Level FlightAware ADS-B
Sat 05:51:22 PM 42.6290 -87.5240 92° East 498 573 39,000  Level FlightAware ADS-B
Sat 05:51:52 PM 42.6260 -87.4320 93° East 498 573 39,000  Level FlightAware ADS-B
Sat 05:52:32 PM 42.6220 -87.3100 93° East 498 573 39,000  Level FlightAware ADS-B
Sat 05:53:04 PM 42.6190 -87.2090 92° East 499 574 39,000  Level FlightAware ADS-B
Sat 05:53:40 PM 42.6150 -87.0950 93° East 499 574 39,000  Level FlightAware ADS-B
Sat 05:54:16 PM 42.6110 -86.9830 93° East 499 574 39,000  Level FlightAware ADS-B
Sat 05:54:46 PM 42.6070 -86.8890 93° East 500 575 39,000  Level FlightAware ADS-B
Sat 05:55:20 PM 42.6040 -86.7800 92° East 500 575 39,000  Level FlightAware ADS-B
Sat 05:56:02 PM 42.5990 -86.6550 93° East 501 577 39,000  Level FlightAware ADS-B
Sat 05:56:32 PM 42.5950 -86.5570 93° East 502 578 39,000  Level FlightAware ADS-B
Sat 05:57:10 PM 42.5900 -86.4370 93° East 502 578 39,000  Level FlightAware ADS-B
Sat 05:57:42 PM 42.5860 -86.3370 93° East 503 579 39,000  Level FlightAware ADS-B
Sat 05:58:19 PM 42.5810 -86.2180 93° East 503 579 39,000  Level FlightAware ADS-B
Sat 05:58:54 PM 42.5770 -86.1100 93° East 503 579 39,000  Level FlightAware ADS-B
Sat 05:59:29 PM 42.5720 -85.9990 93° East 503 579 39,000  Level FlightAware ADS-B
Sat 06:00:01 PM 42.5680 -85.9030 93° East 505 581 39,000  Level FlightAware ADS-B
Sat 06:00:36 PM 42.5630 -85.7920 93° East 506 582 39,000  Level FlightAware ADS-B
Sat 06:01:15 PM 42.5570 -85.6650 94° East 506 582 39,000  Level FlightAware ADS-B
Sat 06:01:51 PM 42.5510 -85.5510 94° East 506 582 39,000  Level FlightAware ADS-B
Sat 06:02:25 PM 42.5460 -85.4450 94° East 505 581 39,000  Level FlightAware ADS-B
Sat 06:03:01 PM 42.5410 -85.3290 93° East 504 580 39,000  Level FlightAware ADS-B
Sat 06:03:35 PM 42.5350 -85.2240 94° East 504 580 39,000  Level FlightAware ADS-B
Sat 06:04:08 PM 42.5300 -85.1210 94° East 505 581 39,000  Level FlightAware ADS-B
Sat 06:04:47 PM 42.5230 -84.9990 94° East 507 583 39,000  Level FlightAware ADS-B
Sat 06:05:19 PM 42.5180 -84.8980 94° East 509 586 39,000  Level FlightAware ADS-B
Sat 06:05:55 PM 42.5120 -84.7820 94° East 510 587 39,000  Level FlightAware ADS-B
Sat 06:06:30 PM 42.5060 -84.6710 94° East 511 588 39,000  Level FlightAware ADS-B
Sat 06:07:07 PM 42.4980 -84.5530 95° East 511 588 39,000  Level FlightAware ADS-B
Sat 06:07:39 PM 42.4910 -84.4490 95° East 512 589 39,000  Level FlightAware ADS-B
Sat 06:08:13 PM 42.4850 -84.3520 95° East 512 589 39,000  Level FlightAware ADS-B
Sat 06:08:39 PM 42.4790 -84.2600 95° East 513 590 39,000  Level FlightAware ADS-B
Sat 06:09:25 PM 42.4690 -84.1130 95° East 513 590 39,000  Level FlightAware ADS-B
Sat 06:10:02 PM 42.4610 -83.9960 95° East 512 589 39,000  Level FlightAware ADS-B
Sat 06:10:35 PM 42.4530 -83.8870 96° East 512 589 39,000  Level FlightAware ADS-B
Sat 06:10:59 PM 42.4480 -83.8130 95° East 511 588 39,000  Level FlightAware ADS-B
Sat 06:11:38 PM 42.4390 -83.6900 96° East 511 588 39,000  Level FlightAware ADS-B
Sat 06:12:13 PM 42.4310 -83.5770 95° East 510 587 39,000  Level FlightAware ADS-B
Sat 06:12:45 PM 42.4240 -83.4760 95° East 510 587 39,000  Level FlightAware ADS-B
Sat 06:13:19 PM 42.4160 -83.3700 96° East 510 587 39,000  Level FlightAware ADS-B
Sat 06:13:57 PM 42.4060 -83.2480 96° East 511 588 39,000  Level FlightAware ADS-B
Sat 06:14:32 PM 42.3980 -83.1390 96° East 510 587 39,000  Level FlightAware ADS-B
Sat 06:15:05 PM 42.3900 -83.0350 96° East 511 588 39,000  Level FlightAware ADS-B
Sat 06:15:43 PM 42.3800 -82.9130 96° East 512 589 39,000  Level FlightAware ADS-B
Sat 06:16:19 PM 42.3710 -82.7970 96° East 512 589 39,000  Level FlightAware ADS-B
Sat 06:16:54 PM 42.3630 -82.6900 96° East 512 589 39,000  Level FlightAware ADS-B
Sat 06:17:25 PM 42.3540 -82.5870 97° East 513 590 39,000  Level FlightAware ADS-B
Sat 06:18:01 PM 42.3450 -82.4730 96° East 512 589 39,000  Level FlightAware ADS-B
Sat 06:18:40 PM 42.3350 -82.3520 96° East 511 588 39,000  Level FlightAware ADS-B
Sat 06:19:13 PM 42.3260 -82.2470 97° East 509 586 39,000  Level FlightAware ADS-B
Sat 06:19:58 PM 42.3140 -82.1110 97° East 508 585 39,000  Level FlightAware ADS-B
Sat 06:20:33 PM 42.3060 -82.0190 97° East 507 583 39,000  Level FlightAware ADS-B
Sat 06:21:12 PM 42.2940 -81.8820 97° East 506 582 39,000  Level FlightAware ADS-B
Sat 06:21:55 PM 42.2830 -81.7550 97° East 506 582 39,000  Level FlightAware ADS-B
Sat 06:22:35 PM 42.2710 -81.6280 97° East 506 582 39,000  Level FlightAware ADS-B
Sat 06:23:06 PM 42.2620 -81.5260 97° East 507 583 39,000  Level FlightAware ADS-B
Sat 06:23:45 PM 42.2520 -81.4110 97° East 507 583 39,000  Level FlightAware ADS-B
Sat 06:24:15 PM 42.2420 -81.3080 97° East 509 586 39,000  Level FlightAware ADS-B
Sat 06:24:55 PM 42.2300 -81.1790 97° East 509 586 39,000  Level FlightAware ADS-B
Sat 06:25:30 PM 42.2190 -81.0690 98° East 510 587 39,000  Level FlightAware ADS-B
Sat 06:26:05 PM 42.2090 -80.9610 97° East 511 588 39,000  Level FlightAware ADS-B
Sat 06:26:40 PM 42.1980 -80.8500 98° East 511 588 39,000  Level FlightAware ADS-B
Sat 06:27:15 PM 42.1870 -80.7390 98° East 512 589 39,000  Level FlightAware ADS-B
Sat 06:27:56 PM 42.1750 -80.6120 97° East 511 588 39,000  Level FlightAware ADS-B
Sat 06:28:31 PM 42.1720 -80.5060 92° East 509 586 39,000  Level FlightAware ADS-B
Sat 06:29:05 PM 42.1710 -80.3940 91° East 509 586 39,000  Level FlightAware ADS-B
Sat 06:29:40 PM 42.1670 -80.2820 93° East 508 585 39,000  Level FlightAware ADS-B
Sat 06:30:15 PM 42.1510 -80.1740 101° East 508 585 39,000  Level FlightAware ADS-B
Sat 06:30:50 PM 42.1360 -80.0690 101° East 508 585 39,000  Level FlightAware ADS-B
Sat 06:31:25 PM 42.1200 -79.9580 101° East 505 581 39,000  Level FlightAware ADS-B
Sat 06:32:00 PM 42.1060 -79.8520 100° East 503 579 39,000  Level FlightAware ADS-B
Sat 06:32:40 PM 42.0860 -79.7330 103° East 501 577 39,000  Level FlightAware ADS-B
Sat 06:33:10 PM 42.0690 -79.6430 104° East 500 575 39,000  Level FlightAware ADS-B
Sat 06:33:46 PM 42.0480 -79.5310 104° East 497 572 39,000  Level FlightAware ADS-B
Sat 06:34:20 PM 42.0270 -79.4280 105° East 496 571 39,000  Level FlightAware ADS-B
Sat 06:34:57 PM 42.0050 -79.3320 107° East 494 568 39,000  Level FlightAware ADS-B
Sat 06:35:30 PM 41.9800 -79.2230 107° East 491 565 39,000  Level FlightAware ADS-B
Sat 06:36:10 PM 41.9540 -79.1080 107° East 490 564 39,000  Level FlightAware ADS-B
Sat 06:36:57 PM 41.9240 -78.9760 107° East 488 562 39,000  Level FlightAware ADS-B
Sat 06:37:30 PM 41.9010 -78.8740 107° East 484 557 39,000  Level FlightAware ADS-B
Sat 06:38:10 PM 41.8750 -78.7600 107° East 480 552 39,000  Level FlightAware ADS-B
Sat 06:38:45 PM 41.8530 -78.6650 107° East 479 551 39,000  Level FlightAware ADS-B
Sat 06:39:20 PM 41.8260 -78.5620 109° East 478 550 39,000  Level FlightAware ADS-B
Sat 06:39:55 PM 41.8000 -78.4670 110° East 480 552 39,000  Level FlightAware ADS-B
Sat 06:40:30 PM 41.7740 -78.3740 111° Southeast 482 555 39,000  Level FlightAware ADS-B
Sat 06:41:06 PM 41.7420 -78.2720 113° Southeast 484 557 39,000  Level FlightAware ADS-B
Sat 06:41:50 PM 41.7020 -78.1500 114° Southeast 487 560 39,000  Level FlightAware ADS-B
Sat 06:42:24 PM 41.6700 -78.0500 113° Southeast 489 563 39,000  Level FlightAware ADS-B
Sat 06:43:02 PM 41.6370 -77.9440 113° Southeast 490 564 39,000  Level FlightAware ADS-B
Sat 06:43:34 PM 41.6070 -77.8510 113° Southeast 491 565 39,000  Level FlightAware ADS-B
Sat 06:44:10 PM 41.5740 -77.7510 114° Southeast 490 564 39,000  Level FlightAware ADS-B
Sat 06:44:48 PM 41.5410 -77.6470 113° Southeast 492 566 39,000  Level FlightAware ADS-B
Sat 06:45:20 PM 41.5130 -77.5580 113° Southeast 492 566 39,000  Level FlightAware ADS-B
Sat 06:45:55 PM 41.4820 -77.4600 113° Southeast 491 565 39,000  Level FlightAware ADS-B
Sat 06:46:28 PM 41.4530 -77.3740 114° Southeast 489 563 39,000  Level FlightAware ADS-B
Sat 06:47:05 PM 41.4130 -77.2700 117° Southeast 490 564 39,000  Level FlightAware ADS-B
Sat 06:47:43 PM 41.3730 -77.1710 118° Southeast 488 562 39,000  Level FlightAware ADS-B
Sat 06:48:23 PM 41.3300 -77.0640 118° Southeast 488 562 39,000  Level FlightAware ADS-B
Sat 06:48:55 PM 41.2990 -76.9860 118° Southeast 487 560 39,000  Level FlightAware ADS-B
Sat 06:49:31 PM 41.2600 -76.8870 118° Southeast 485 558 39,000  Level FlightAware ADS-B
Sat 06:50:05 PM 41.2270 -76.7950 115° Southeast 483 556 39,000  Level FlightAware ADS-B
Sat 06:50:43 PM 41.1930 -76.7010 116° Southeast 484 557 39,000  Level FlightAware ADS-B
Sat 06:51:14 PM 41.1660 -76.6110 112° Southeast 482 555 39,000  Level FlightAware ADS-B
Sat 06:51:51 PM 41.1380 -76.5020 109° East 480 552 39,000  Level FlightAware ADS-B
Sat 06:52:33 PM 41.1340 -76.3910 93° East 477 549 39,000 -468 Level FlightAware ADS-B
Sat 06:53:08 PM 41.1400 -76.2870 86° East 477 549 38,400 -2,000 Descending FlightAware ADS-B
Sat 06:53:42 PM 41.1400 -76.1860 90° East 477 549 36,700 -3,162 Descending FlightAware ADS-B
Sat 06:54:22 PM 41.1400 -76.0690 90° East 480 552 34,500 -3,257 Descending FlightAware ADS-B
Sat 06:54:52 PM 41.1420 -75.9770 88° East 486 559 32,900 -3,176 Descending FlightAware ADS-B
Sat 06:55:30 PM 41.1440 -75.8590 89° East 491 565 30,900 -3,086 Descending FlightAware ADS-B
Sat 06:56:02 PM 41.1460 -75.7650 88° East 493 567 29,300 -2,829 Descending FlightAware ADS-B
Sat 06:56:40 PM 41.1480 -75.6510 89° East 488 562 27,600 -2,571 Descending FlightAware ADS-B
Sat 06:57:12 PM 41.1500 -75.5550 88° East 478 550 26,300 -2,471 Descending FlightAware ADS-B
Sat 06:57:48 PM 41.1510 -75.4510 89° East 472 543 24,800 -2,182 Descending FlightAware ADS-B
Sat 06:58:40 PM 41.1420 -75.3070 95° East 458 527 23,100 -1,301 Descending FlightAware ADS-B
Sat 06:59:11 PM 41.1180 -75.2270 112° Southeast 451 519 23,000 -87 Descending FlightAware ADS-B
Sat 06:59:49 PM 41.0860 -75.1310 114° Southeast 451 519 23,000  Level FlightAware ADS-B
Sat 07:00:25 PM 41.0540 -75.0390 115° Southeast 454 522 23,000  Level FlightAware ADS-B
Sat 07:01:02 PM 41.0210 -74.9420 114° Southeast 454 522 23,000 -316 Level FlightAware ADS-B
Sat 07:01:41 PM 40.9940 -74.8420 110° East 455 524 22,600 -943 Descending FlightAware ADS-B
Sat 07:02:12 PM 40.9830 -74.7570 100° East 454 522 21,900 -1,268 Descending FlightAware ADS-B
Sat 07:02:52 PM 40.9720 -74.6480 98° East 448 516 21,100 -1,176 Descending FlightAware ADS-B
Sat 07:03:03 PM 40.9684 -74.6180 99° East 447 514 20,900 -1,200 Descending FlightAware ADS-B
Sat 07:04:02 PM 40.9520 -74.4610 98° East 443 510 19,700 -1,226 Descending FlightAware ADS-B
Sat 07:04:36 PM 40.9413 -74.3668 99° East 440 506 19,000 -933 Descending FlightAware ADS-B
Sat 07:04:47 PM 40.9397 -74.3383 94° East 438 504 19,000  Level FlightAware ADS-B
Sat 07:04:52 PM 40.9398 -74.3247 89° East 435 501 19,000  Level FlightAware ADS-B
Sat 07:05:27 PM 40.9431 -74.2373 87° East 415 478 19,000  Level FlightAware ADS-B
Sat 07:06:00 PM 40.9233 -74.1661 110° East 382 440 19,000  Level FlightAware ADS-B
Sat 07:06:07 PM 40.9160 -74.1544 130° Southeast 352 405 19,000  Level FlightAware ADS-B
Sat 07:06:13 PM 40.9091 -74.1458 137° Southeast 350 403 19,000  Level FlightAware ADS-B
Sat 07:06:18 PM 40.9027 -74.1392 142° Southeast 346 398 19,000  Level FlightAware ADS-B
Sat 07:06:31 PM 40.8857 -74.1270 152° Southeast 338 389 19,000  Level FlightAware ADS-B
Sat 07:06:52 PM 40.8545 -74.1135 162° South 335 386 19,000 -353 Level FlightAware ADS-B
Sat 07:07:22 PM 40.8096 -74.0963 164° South 329 379 18,700 -1,000 Descending FlightAware ADS-B
Sat 07:07:58 PM 40.7576 -74.0753 163° South 327 376 17,900 -1,521 Descending FlightAware ADS-B
Sat 07:08:33 PM 40.7062 -74.0548 163° South 333 383 16,900 -1,481 Descending FlightAware ADS-B
Sat 07:09:19 PM 40.6392 -74.0288 164° South 330 380 15,900 -1,267 Descending FlightAware ADS-B
Sat 07:10:03 PM 40.5803 -73.9888 153° Southeast 327 376 15,000 -1,317 Descending FlightAware ADS-B
Sat 07:10:41 PM 40.5360 -73.9460 144° Southeast 328 377 14,100 -1,417 Descending FlightAware ADS-B
Sat 07:11:15 PM 40.4990 -73.9120 145° Southeast 323 372 13,300 -1,846 Descending FlightAware ADS-B
Sat 07:11:46 PM 40.4580 -73.8730 144° Southeast 321 369 12,100 -2,091 Descending FlightAware ADS-B
Sat 07:12:21 PM 40.4130 -73.8310 145° Southeast 315 362 11,000 -1,784 Descending FlightAware ADS-B
Sat 07:13:00 PM 40.3670 -73.7900 146° Southeast 299 344 9,900 -1,729 Descending FlightAware ADS-B
Sat 07:13:20 PM 40.3450 -73.7700 145° Southeast 292 336 9,300 -2,000 Descending FlightAware ADS-B
Sat 07:13:36 PM 40.3280 -73.7540 144° Southeast 288 331 8,700 -2,357 Descending FlightAware ADS-B
Sat 07:13:48 PM 40.3150 -73.7390 139° Southeast 288 331 8,200 -1,909 Descending FlightAware ADS-B
Sat 07:13:58 PM 40.3110 -73.7300 120° Southeast 289 333 8,000 -1,667 Descending FlightAware ADS-B
Sat 07:14:06 PM 40.3060 -73.7160 115° Southeast 290 334 7,700 -2,824 Descending FlightAware ADS-B
Sat 07:14:15 PM 40.3050 -73.6980 94° East 292 336 7,200 -2,323 Descending FlightAware ADS-B
Sat 07:14:37 PM 40.3130 -73.6670 71° East 290 334 6,500 -1,650 Descending FlightAware ADS-B
Sat 07:14:55 PM 40.3300 -73.6460 43° Northeast 292 336 6,100 -1,364 Descending FlightAware ADS-B
Sat 07:15:21 PM 40.3620 -73.6140 37° Northeast 288 331 5,500 -1,174 Descending FlightAware ADS-B
Sat 07:15:41 PM 40.3850 -73.5980 28° Northeast 290 334 5,200 -585 Descending FlightAware ADS-B
Sat 07:16:02 PM 40.4060 -73.5830 29° Northeast 288 331 5,100 -514 Descending FlightAware ADS-B
Sat 07:16:16 PM 40.4260 -73.5690 28° Northeast 283 326 4,900 -1,200 Descending FlightAware ADS-B
Sat 07:16:37 PM 40.4520 -73.5500 29° Northeast 284 327 4,400 -1,091 Descending FlightAware ADS-B
Sat 07:17:00 PM 40.4780 -73.5310 29° Northeast 285 328 4,100 -533 Descending FlightAware ADS-B
Sat 07:17:22 PM 40.5030 -73.5130 29° Northeast 283 326 4,000 -146 Descending FlightAware ADS-B
Sat 07:17:41 PM 40.5260 -73.4970 28° Northeast 281 323 4,000 158 Level FlightAware ADS-B
Sat 07:18:00 PM 40.5470 -73.4820 28° Northeast 285 328 4,100 150 Climbing FlightAware ADS-B
Sat 07:18:21 PM 40.5710 -73.4650 28° Northeast 285 328 4,100  Level FlightAware ADS-B
Sat 07:18:43 PM 40.5990 -73.4490 23° Northeast 283 326 4,100  Level FlightAware ADS-B
Sat 07:18:49 PM 40.6070 -73.4490 360° North 281 323 4,100 -414 Level FlightAware ADS-B
Sat 07:19:12 PM 40.6350 -73.4530 354° North 274 315 3,900 -837 Descending FlightAware ADS-B
Sat 07:19:32 PM 40.6600 -73.4590 350° North 273 314 3,500 -1,050 Descending FlightAware ADS-B
Sat 07:19:52 PM 40.6820 -73.4640 350° North 270 311 3,200 -750 Descending FlightAware ADS-B
Sat 07:20:12 PM 40.7100 -73.4700 351° North 257 296 3,000 -150 Descending FlightAware ADS-B
Sat 07:20:32 PM 40.7310 -73.4750 350° North 239 275 3,100  Climbing FlightAware ADS-B
Sat 07:20:46 PM 40.7450 -73.4810 342° North 230 265 3,000 -750 Descending FlightAware ADS-B
Sat 07:20:56 PM 40.7520 -73.4880 323° Northwest 224 258 2,800 -1,000 Descending FlightAware ADS-B
Sat 07:21:04 PM 40.7590 -73.5000 308° West 219 252 2,700 -750 Descending FlightAware ADS-B
Sat 07:21:12 PM 40.7630 -73.5090 300° West 214 246 2,600 -923 Descending FlightAware ADS-B
Sat 07:21:30 PM 40.7710 -73.5290 298° West 214 246 2,300 -769 Descending FlightAware ADS-B
Sat 07:21:51 PM 40.7810 -73.5510 301° West 210 242 2,100 -545 Descending FlightAware ADS-B
Sat 07:22:03 PM 40.7870 -73.5650 300° West 204 235 2,000 -176 Descending FlightAware ADS-B
Sat 07:22:25 PM 40.7980 -73.5880 302° West 187 215 2,000  Level FlightAware ADS-B
Sat 07:22:39 PM 40.8010 -73.6010 287° West 178 205 2,000 162 Level FlightAware ADS-B
Sat 07:23:02 PM 40.7960 -73.6230 253° West 168 193 2,100  Climbing FlightAware ADS-B
Sat 07:23:18 PM 40.7880 -73.6370 233° Southwest 173 199 2,000 -250 Descending FlightAware ADS-B
Sat 07:23:26 PM 40.7830 -73.6430 222° Southwest 175 201 2,000  Level FlightAware ADS-B
Sat 07:23:37 PM 40.7760 -73.6500 217° Southwest 175 201 2,000 146 Level FlightAware ADS-B
Sat 07:24:07 PM 40.7560 -73.6690 216° Southwest 175 201 2,100  Climbing FlightAware ADS-B
Sat 07:24:27 PM 40.7430 -73.6790 210° Southwest 175 201 2,000 -308 Descending FlightAware ADS-B
Sat 07:24:46 PM 40.7290 -73.6900 211° Southwest 173 199 1,900 -429 Descending FlightAware ADS-B
Sat 07:25:09 PM 40.7170 -73.6980 207° Southwest 158 182 1,700 -714 Descending FlightAware ADS-B
Sat 07:25:28 PM 40.7030 -73.7090 211° Southwest 138 159 1,400 -833 Descending FlightAware ADS-B
Sat 07:25:45 PM 40.6940 -73.7170 214° Southwest 132 152 1,200 -632 Descending FlightAware ADS-B
Sat 07:26:06 PM 40.6830 -73.7250 209° Southwest 130 150 1,000 -686 Descending FlightAware ADS-B
Sat 07:26:20 PM 40.6760 -73.7310 213° Southwest 131 151 800 -706 Descending FlightAware ADS-B
Sat 07:26:40 PM 40.6650 -73.7390 209° Southwest 128 147 600 -600 Descending FlightAware ADS-B
Sat 07:26:50 PM 40.6602 -73.7433 214° Southwest 128 147 500 -714 Descending FlightAware ADS-B
Sat 07:27:22 PM 40.6430 -73.7570 211° Southwest 134 154 100 -750 Descending FlightAware ADS-B
Sat 07:27:40 PM 40.6350 -73.7630 210° Southwest 86 99 -333 Descending FlightAware ADS-B

Login

Don't have an account? Register now (free) for customized features, flight alerts, and more!